Time;durP1;ratioP1;P1;durP2;ratioP2;P2;SDS_P1;SDS_P2;PMS_P1;PMS_P2;Temp;Humidity;BMP_temperature;BMP_pressure;BME280_temperature;BME280_humidity;BME280_pressure;Samples;Min_cycle;Max_cycle;Signal;HPM_P1;HPM_P2
2022/05/24 00:02:05;;;;;;;10.43;6.90;;;14.70;99.90;;;;;;5064830;28;20139;-65
2022/05/24 00:04:31;;;;;;;12.00;6.75;;;14.60;99.90;;;;;;5067704;28;20036;-66
2022/05/24 00:06:58;;;;;;;11.02;6.40;;;15.30;99.90;;;;;;5069454;28;20561;-65
2022/05/24 00:09:24;;;;;;;8.93;6.53;;;14.90;99.90;;;;;;5068474;28;20044;-65
2022/05/24 00:11:50;;;;;;;11.45;6.43;;;14.50;99.90;;;;;;5067777;28;20195;-66
2022/05/24 00:15:19;;;;;;;10.75;6.88;;;14.40;99.90;;;;;;5066844;28;20128;-66
2022/05/24 00:17:01;;;;;;;9.80;6.10;;;14.50;99.90;;;;;;5055505;28;20098;-66
2022/05/24 00:19:27;;;;;;;9.27;6.72;;;14.40;99.90;;;;;;5069587;28;20451;-66
2022/05/24 00:21:52;;;;;;;11.07;7.30;;;14.40;99.90;;;;;;5070003;28;20048;-66
2022/05/24 00:24:18;;;;;;;10.32;7.13;;;14.40;99.90;;;;;;5068580;28;20049;-66
2022/05/24 00:26:43;;;;;;;12.90;7.38;;;14.80;99.90;;;;;;5068801;28;20051;-66
2022/05/24 00:29:09;;;;;;;11.23;7.13;;;14.30;99.90;;;;;;5067006;28;20508;-67
2022/05/24 00:31:35;;;;;;;10.88;6.60;;;14.20;99.90;;;;;;5061667;28;20178;-67
2022/05/24 00:34:00;;;;;;;9.10;6.57;;;14.20;99.90;;;;;;5046966;28;20086;-67
2022/05/24 00:36:26;;;;;;;12.35;6.78;;;14.20;99.90;;;;;;5046761;28;20041;-67
2022/05/24 00:38:51;;;;;;;9.88;6.53;;;14.10;99.90;;;;;;5051957;28;20047;-66
2022/05/24 00:41:24;;;;;;;14.80;7.45;;;14.20;99.90;;;;;;5066764;28;20184;-66
2022/05/24 00:44:14;;;;;;;9.23;6.70;;;14.10;99.90;;;;;;5067238;28;20045;-67
2022/05/24 00:46:58;;;;;;;9.88;6.30;;;14.20;99.90;;;;;;5057914;28;20045;-67
2022/05/24 00:49:29;;;;;;;10.93;6.85;;;14.20;99.90;;;;;;5070439;28;20045;-66
2022/05/24 00:52:02;;;;;;;9.65;6.53;;;14.20;99.90;;;;;;5069973;28;20083;-67
2022/05/24 00:54:28;;;;;;;9.82;6.70;;;14.10;99.90;;;;;;5070522;28;20028;-66
2022/05/24 00:57:08;;;;;;;9.25;6.20;;;14.10;99.90;;;;;;5070707;28;20071;-66
2022/05/24 00:59:48;;;;;;;9.80;5.25;;;14.00;99.90;;;;;;5065312;28;20049;-66
2022/05/24 01:02:13;;;;;;;9.07;5.60;;;14.00;99.90;;;;;;5048792;28;20135;-67
2022/05/24 01:04:39;;;;;;;8.50;5.30;;;14.00;99.90;;;;;;5050511;28;20076;-67
2022/05/24 01:07:05;;;;;;;10.68;5.78;;;13.80;99.90;;;;;;5049795;28;20334;-66
2022/05/24 01:09:47;;;;;;;11.10;5.50;;;13.80;99.90;;;;;;5057614;28;20046;-66
2022/05/24 01:12:18;;;;;;;9.35;5.43;;;13.70;99.90;;;;;;5069843;28;20426;-66
2022/05/24 01:14:44;;;;;;;8.88;5.30;;;13.60;99.90;;;;;;5070803;28;20396;-67
2022/05/24 01:17:10;;;;;;;9.55;6.05;;;13.50;99.90;;;;;;5068661;28;20362;-66
2022/05/24 01:19:55;;;;;;;10.27;5.60;;;13.50;99.90;;;;;;5069764;28;20051;-67
2022/05/24 01:22:48;;;;;;;9.55;5.50;;;13.40;99.90;;;;;;5069962;28;20048;-66
2022/05/24 01:25:16;;;;;;;11.30;5.97;;;13.40;99.90;;;;;;5069522;28;20555;-66
2022/05/24 01:27:42;;;;;;;10.75;6.00;;;13.30;99.90;;;;;;5069360;28;20048;-66
2022/05/24 01:30:09;;;;;;;8.32;5.63;;;13.30;99.90;;;;;;5070779;28;20631;-66
2022/05/24 01:38:10;;;;;;;12.13;6.05;;;13.10;99.90;;;;;;5060054;28;20088;-66
2022/05/24 01:40:36;;;;;;;10.07;6.50;;;13.10;99.90;;;;;;5069264;28;20119;-66
2022/05/24 01:43:02;;;;;;;10.35;6.32;;;13.10;99.90;;;;;;5068522;28;20041;-67
2022/05/24 01:45:33;;;;;;;9.30;6.07;;;13.00;99.90;;;;;;5069442;28;20082;-66
2022/05/24 01:48:06;;;;;;;11.00;6.75;;;13.00;99.90;;;;;;5067509;28;20327;-66
2022/05/24 01:50:34;;;;;;;8.95;6.47;;;13.00;99.90;;;;;;5069209;28;20054;-67
2022/05/24 01:53:08;;;;;;;9.98;6.70;;;13.10;99.90;;;;;;5069549;28;20044;-66
2022/05/24 01:55:45;;;;;;;9.80;6.53;;;12.90;99.90;;;;;;5064998;28;20037;-67
2022/05/24 01:58:15;;;;;;;13.52;7.18;;;12.90;99.90;;;;;;5057016;28;20053;-67
2022/05/24 02:00:46;;;;;;;10.55;7.25;;;12.80;99.90;;;;;;5070189;28;20036;-66
2022/05/24 02:03:11;;;;;;;9.68;6.72;;;12.90;99.90;;;;;;5066536;28;20095;-67
2022/05/24 02:05:40;;;;;;;9.80;7.35;;;12.90;99.90;;;;;;5070674;28;20078;-66
2022/05/24 02:08:08;;;;;;;12.73;7.00;;;12.90;99.90;;;;;;5069706;28;20128;-66
2022/05/24 02:10:48;;;;;;;9.45;6.75;;;12.90;99.90;;;;;;5068833;28;20047;-66
2022/05/24 02:13:27;;;;;;;11.52;7.20;;;12.90;99.90;;;;;;5069125;28;20055;-66
2022/05/24 02:15:56;;;;;;;10.25;7.57;;;13.00;99.90;;;;;;5068963;28;20045;-67
2022/05/24 02:18:23;;;;;;;11.80;7.82;;;12.90;99.90;;;;;;5065862;28;20429;-67
2022/05/24 02:20:49;;;;;;;11.38;7.65;;;12.90;99.90;;;;;;5084799;28;20066;-67
2022/05/24 02:23:17;;;;;;;10.48;7.80;;;12.90;99.90;;;;;;5067024;28;20045;-66
2022/05/24 02:25:51;;;;;;;9.88;8.00;;;12.90;99.90;;;;;;5060425;28;20440;-66
2022/05/24 02:28:20;;;;;;;11.73;7.40;;;12.90;99.90;;;;;;5062694;28;20075;-66
2022/05/24 02:30:49;;;;;;;10.98;7.47;;;13.00;99.90;;;;;;5048882;28;20037;-66
2022/05/24 02:33:15;;;;;;;11.75;7.93;;;13.00;99.90;;;;;;5047494;28;20076;-66
2022/05/24 02:35:41;;;;;;;10.25;7.80;;;13.00;99.90;;;;;;5067747;28;20493;-66
2022/05/24 02:38:06;;;;;;;15.38;8.65;;;13.00;99.90;;;;;;5067927;28;20049;-66
2022/05/24 02:43:17;;;;;;;12.38;8.68;;;13.00;99.90;;;;;;5067279;28;20143;-66
2022/05/24 02:45:43;;;;;;;10.80;8.30;;;13.00;99.90;;;;;;5068332;28;20071;-66
2022/05/24 02:48:09;;;;;;;12.05;8.73;;;13.00;99.90;;;;;;5066353;28;20044;-66
2022/05/24 02:50:35;;;;;;;10.98;8.02;;;13.10;99.90;;;;;;5066623;28;20485;-66
2022/05/24 02:53:01;;;;;;;11.98;8.52;;;13.00;99.90;;;;;;5067784;28;20047;-66
2022/05/24 02:55:26;;;;;;;11.50;8.43;;;13.10;99.90;;;;;;5067118;28;20131;-66
2022/05/24 02:57:52;;;;;;;13.50;8.70;;;13.10;99.90;;;;;;5067553;28;20477;-66
2022/05/24 03:00:21;;;;;;;12.20;8.73;;;13.10;99.90;;;;;;5067824;28;20489;-66
2022/05/24 03:02:49;;;;;;;12.02;8.88;;;13.10;99.90;;;;;;5063978;28;20130;-66
2022/05/24 03:05:15;;;;;;;10.48;8.40;;;13.20;99.90;;;;;;5047425;28;20052;-66
2022/05/24 03:10:26;;;;;;;12.82;9.35;;;13.20;99.90;;;;;;5048283;28;20053;-66
2022/05/24 03:15:42;;;;;;;12.32;9.48;;;13.40;99.90;;;;;;5068298;28;20105;-66
2022/05/24 03:18:09;;;;;;;14.43;9.75;;;13.30;99.90;;;;;;5066618;28;20040;-66
2022/05/24 03:20:35;;;;;;;15.90;10.93;;;13.30;99.90;;;;;;5067099;28;20473;-67
2022/05/24 03:23:02;;;;;;;14.35;10.65;;;13.30;99.90;;;;;;5067831;28;20040;-66
2022/05/24 03:25:28;;;;;;;18.35;11.02;;;13.40;99.90;;;;;;5067874;28;20123;-66
2022/05/24 03:27:53;;;;;;;14.43;10.98;;;13.30;99.90;;;;;;5067646;28;20127;-66
2022/05/24 03:30:19;;;;;;;15.88;11.68;;;14.50;99.90;;;;;;5068258;28;20049;-66
2022/05/24 03:32:45;;;;;;;18.20;11.80;;;13.50;99.90;;;;;;5065587;28;20461;-66
2022/05/24 03:35:14;;;;;;;16.17;12.00;;;13.50;99.90;;;;;;5068072;28;20148;-66
2022/05/24 03:37:41;;;;;;;17.77;12.57;;;13.50;99.90;;;;;;5067190;28;20044;-66
2022/05/24 03:40:09;;;;;;;21.00;13.05;;;13.50;99.90;;;;;;5067696;28;20438;-66
2022/05/24 03:42:35;;;;;;;18.50;13.35;;;13.60;99.90;;;;;;5067563;28;20110;-66
2022/05/24 03:45:01;;;;;;;20.40;13.77;;;13.60;99.90;;;;;;5066777;28;20047;-66
2022/05/24 03:47:27;;;;;;;20.90;14.32;;;13.60;99.90;;;;;;5065046;28;20478;-66
2022/05/24 03:49:52;;;;;;;21.13;14.38;;;13.60;99.90;;;;;;5069590;28;20079;-66
2022/05/24 03:52:18;;;;;;;22.35;16.25;;;13.60;99.90;;;;;;5063517;28;20048;-66
2022/05/24 03:54:44;;;;;;;24.83;16.52;;;13.70;99.90;;;;;;5065059;28;20041;-66
2022/05/24 03:59:54;;;;;;;25.48;17.85;;;13.80;99.90;;;;;;5068613;28;20143;-66
2022/05/24 04:02:19;;;;;;;25.52;17.67;;;13.70;99.90;;;;;;5065176;28;20170;-66
2022/05/24 04:04:45;;;;;;;27.20;18.35;;;13.70;99.90;;;;;;5068631;28;20480;-66
2022/05/24 04:07:10;;;;;;;23.20;17.58;;;13.90;99.90;;;;;;5067480;28;20041;-66
2022/05/24 04:09:36;;;;;;;25.00;18.52;;;13.70;99.90;;;;;;5066826;28;20041;-66
2022/05/24 04:12:02;;;;;;;23.17;17.42;;;13.70;99.90;;;;;;5065519;28;20063;-66
2022/05/24 04:14:31;;;;;;;24.98;17.42;;;13.70;99.90;;;;;;5067321;28;20401;-66
2022/05/24 04:16:56;;;;;;;24.83;17.95;;;13.80;99.90;;;;;;5065103;28;20404;-66
2022/05/24 04:19:22;;;;;;;24.00;18.63;;;13.90;99.90;;;;;;5067733;28;20044;-66
2022/05/24 04:21:47;;;;;;;26.65;18.60;;;13.90;99.90;;;;;;5071091;28;20047;-66
2022/05/24 04:24:13;;;;;;;26.42;18.90;;;13.90;99.90;;;;;;5070042;28;20090;-66
2022/05/24 04:26:39;;;;;;;25.83;19.70;;;14.00;99.90;;;;;;5071259;28;20064;-66
2022/05/24 04:29:05;;;;;;;26.77;18.98;;;14.30;99.90;;;;;;5055730;28;20075;-66
2022/05/24 04:31:31;;;;;;;26.00;18.60;;;13.90;99.90;;;;;;5048963;28;20084;-66
2022/05/24 04:33:56;;;;;;;26.00;18.85;;;14.40;99.90;;;;;;5064123;28;20033;-66
2022/05/24 04:36:22;;;;;;;24.10;17.88;;;13.90;99.90;;;;;;5068067;28;20186;-66
2022/05/24 04:38:47;;;;;;;25.95;18.27;;;14.00;99.90;;;;;;5071475;28;20389;-66
2022/05/24 04:43:57;;;;;;;25.10;18.15;;;14.20;99.90;;;;;;5069444;28;20395;-65
2022/05/24 04:46:23;;;;;;;26.08;17.63;;;14.10;99.90;;;;;;5070955;28;20480;-65
2022/05/24 04:48:48;;;;;;;23.10;17.02;;;14.10;99.90;;;;;;5070494;28;20039;-66
2022/05/24 04:51:14;;;;;;;23.27;16.13;;;14.10;99.90;;;;;;5069525;28;20136;-67
2022/05/24 04:53:39;;;;;;;21.75;16.17;;;14.10;99.90;;;;;;5071084;28;20041;-67
2022/05/24 04:56:05;;;;;;;21.77;15.60;;;14.20;99.90;;;;;;5070157;28;20047;-66
2022/05/24 04:58:31;;;;;;;21.67;15.90;;;14.20;99.90;;;;;;5069358;28;20127;-66
2022/05/24 05:00:56;;;;;;;21.20;15.30;;;14.30;99.90;;;;;;5070483;28;20067;-67
2022/05/24 05:03:22;;;;;;;23.95;15.45;;;14.30;99.90;;;;;;5068584;28;20025;-66
2022/05/24 05:05:50;;;;;;;22.30;14.65;;;14.30;99.90;;;;;;5070167;28;20447;-65
2022/05/24 05:08:16;;;;;;;17.40;13.65;;;14.30;99.90;;;;;;5068394;28;20446;-65
2022/05/24 05:10:42;;;;;;;20.95;13.90;;;14.30;99.90;;;;;;5070815;28;20059;-65
2022/05/24 05:13:08;;;;;;;18.77;13.45;;;14.40;99.90;;;;;;5068860;28;20028;-66
2022/05/24 05:15:34;;;;;;;19.63;13.93;;;14.40;99.90;;;;;;5070012;28;20048;-66
2022/05/24 05:18:09;;;;;;;16.95;12.57;;;14.40;99.90;;;;;;5050663;28;20149;-65
2022/05/24 05:20:39;;;;;;;17.27;12.93;;;14.40;99.90;;;;;;5070020;28;20067;-66
2022/05/24 05:23:09;;;;;;;17.58;12.30;;;14.40;99.90;;;;;;5068047;28;20106;-66
2022/05/24 05:25:36;;;;;;;18.63;11.75;;;14.50;99.90;;;;;;5069333;28;20495;-66
2022/05/24 05:28:02;;;;;;;18.58;12.15;;;14.50;99.90;;;;;;5068985;28;20040;-67
2022/05/24 05:33:14;;;;;;;17.55;12.02;;;14.60;99.90;;;;;;5066898;28;20401;-67
2022/05/24 05:35:42;;;;;;;15.50;11.80;;;14.60;99.90;;;;;;5068397;28;20420;-66
2022/05/24 05:38:08;;;;;;;19.48;12.93;;;14.70;99.90;;;;;;5069722;28;20044;-67
2022/05/24 05:40:33;;;;;;;17.58;12.30;;;14.70;99.90;;;;;;5069005;28;20059;-66
2022/05/24 05:42:59;;;;;;;17.02;11.82;;;14.80;99.90;;;;;;5069746;28;20032;-66
2022/05/24 05:45:25;;;;;;;17.83;11.85;;;15.10;99.90;;;;;;5068440;28;20048;-66
2022/05/24 05:47:52;;;;;;;18.10;12.10;;;14.70;99.90;;;;;;5066921;28;20052;-66
2022/05/24 05:50:20;;;;;;;18.23;12.85;;;15.00;99.90;;;;;;5069276;28;20095;-66
2022/05/24 05:52:46;;;;;;;21.80;12.20;;;14.60;99.90;;;;;;5047876;28;20045;-66
2022/05/24 05:55:12;;;;;;;16.98;11.90;;;15.40;99.90;;;;;;5057817;28;20358;-66
2022/05/24 05:57:38;;;;;;;23.42;12.63;;;14.60;99.90;;;;;;5068298;28;20053;-66
2022/05/24 06:00:05;;;;;;;18.50;12.32;;;14.60;99.90;;;;;;5067759;28;20056;-66
2022/05/24 06:02:31;;;;;;;18.83;12.65;;;14.50;99.90;;;;;;5066626;28;20494;-66
2022/05/24 06:04:57;;;;;;;19.48;12.32;;;14.50;99.90;;;;;;5067143;28;20155;-67
2022/05/24 06:07:23;;;;;;;20.10;12.77;;;14.50;99.90;;;;;;5066494;28;20082;-67
2022/05/24 06:09:50;;;;;;;20.67;13.73;;;14.50;99.90;;;;;;5069183;28;20131;-67
2022/05/24 06:12:17;;;;;;;19.90;13.63;;;14.40;99.90;;;;;;5066548;28;20370;-66
2022/05/24 06:14:43;;;;;;;20.63;13.25;;;14.40;99.90;;;;;;5068049;28;20055;-67
2022/05/24 06:17:08;;;;;;;19.25;14.65;;;14.30;99.90;;;;;;5065454;28;20139;-67
2022/05/24 06:19:34;;;;;;;18.13;13.05;;;14.60;99.90;;;;;;5068703;28;20040;-67
2022/05/24 06:21:59;;;;;;;15.50;11.55;;;14.30;99.90;;;;;;5066450;28;20052;-66
2022/05/24 06:24:25;;;;;;;16.25;11.85;;;14.30;99.90;;;;;;5063120;28;20404;-66
2022/05/24 06:26:51;;;;;;;17.27;11.48;;;14.20;99.90;;;;;;5047088;28;20091;-67
2022/05/24 06:29:17;;;;;;;14.82;11.38;;;14.20;99.90;;;;;;5065216;28;20061;-66
2022/05/24 06:31:44;;;;;;;15.77;10.98;;;14.20;99.90;;;;;;5065660;28;20052;-66
2022/05/24 06:34:11;;;;;;;19.58;12.35;;;14.20;99.90;;;;;;5066900;28;20357;-66
2022/05/24 06:36:36;;;;;;;17.25;12.45;;;14.20;99.90;;;;;;5067836;28;20046;-66
2022/05/24 06:39:03;;;;;;;18.70;12.38;;;14.20;99.90;;;;;;5068769;28;20044;-65
2022/05/24 06:41:28;;;;;;;18.52;11.68;;;14.20;99.90;;;;;;5067556;28;20045;-67
2022/05/24 06:43:54;;;;;;;18.35;12.25;;;14.30;99.90;;;;;;5067218;28;20059;-65
2022/05/24 06:46:20;;;;;;;19.73;13.48;;;14.70;99.90;;;;;;5064325;28;20401;-66
2022/05/24 06:48:46;;;;;;;22.05;14.18;;;14.40;99.90;;;;;;5068438;28;20051;-67
2022/05/24 06:51:17;;;;;;;19.95;13.63;;;14.40;99.90;;;;;;5068184;28;20040;-68
2022/05/24 06:53:45;;;;;;;16.85;11.07;;;14.50;99.90;;;;;;5069633;28;20052;-66
2022/05/24 06:56:11;;;;;;;15.35;10.70;;;14.50;99.90;;;;;;5067616;28;20052;-66
2022/05/24 06:58:37;;;;;;;20.92;12.23;;;14.50;99.90;;;;;;5065694;28;20052;-67
2022/05/24 07:03:49;;;;;;;21.58;14.05;;;14.50;99.90;;;;;;5065725;28;20131;-67
2022/05/24 07:06:15;;;;;;;26.70;13.60;;;14.50;99.90;;;;;;5066758;28;20442;-66
2022/05/24 07:08:43;;;;;;;22.63;14.30;;;14.50;99.90;;;;;;5068540;28;20067;-66
2022/05/24 07:11:10;;;;;;;22.25;14.00;;;14.50;99.90;;;;;;5067315;28;20515;-67
2022/05/24 07:13:37;;;;;;;17.13;12.88;;;14.70;99.90;;;;;;5065481;28;20041;-66
2022/05/24 07:16:04;;;;;;;19.90;13.73;;;14.90;99.90;;;;;;5060936;28;20052;-67
2022/05/24 07:18:30;;;;;;;18.52;12.18;;;15.00;99.90;;;;;;5066404;28;20123;-67
2022/05/24 07:20:55;;;;;;;15.93;11.27;;;15.20;99.90;;;;;;5067988;28;20477;-67
2022/05/24 07:23:25;;;;;;;18.45;10.25;;;15.30;99.90;;;;;;5064243;28;20368;-71
2022/05/24 07:25:52;;;;;;;16.15;10.82;;;15.40;99.90;;;;;;5066732;28;20132;-71
2022/05/24 07:28:18;;;;;;;15.98;9.23;;;15.40;99.90;;;;;;5067098;28;20055;-70
2022/05/24 07:30:46;;;;;;;14.55;8.60;;;15.40;99.90;;;;;;5067492;28;20041;-71
2022/05/24 07:33:12;;;;;;;15.13;8.57;;;15.40;99.90;;;;;;5064145;28;20048;-71
2022/05/24 07:35:39;;;;;;;14.38;7.40;;;15.50;99.90;;;;;;5068026;28;20091;-71
2022/05/24 07:38:09;;;;;;;12.90;6.70;;;15.40;99.90;;;;;;5068244;28;20083;-70
2022/05/24 07:46:08;;;;;;;14.25;6.10;;;15.70;99.90;;;;;;5061978;28;20174;-70
2022/05/24 07:48:34;;;;;;;9.43;6.35;;;15.20;99.90;;;;;;5066243;28;20366;-71
2022/05/24 07:51:01;;;;;;;12.10;5.70;;;15.00;99.90;;;;;;5069874;28;20046;-70
2022/05/24 07:53:26;;;;;;;13.00;5.30;;;15.00;99.90;;;;;;5064327;28;20045;-71
2022/05/24 07:55:56;;;;;;;11.80;5.18;;;14.90;99.90;;;;;;5071905;28;20054;-71
2022/05/24 07:58:22;;;;;;;11.50;5.18;;;14.80;99.90;;;;;;5070529;28;20100;-69
2022/05/24 08:00:48;;;;;;;13.98;5.90;;;14.80;99.90;;;;;;5071347;28;20072;-70
2022/05/24 08:03:16;;;;;;;11.57;5.38;;;14.80;99.90;;;;;;5060542;28;20036;-70
2022/05/24 08:05:41;;;;;;;9.82;5.75;;;14.80;99.90;;;;;;5049171;28;20041;-69
2022/05/24 08:08:09;;;;;;;11.20;5.93;;;14.70;99.90;;;;;;5063348;28;20048;-71
2022/05/24 08:10:37;;;;;;;11.40;6.38;;;14.60;99.90;;;;;;5070424;28;20067;-70
2022/05/24 08:13:09;;;;;;;11.82;6.38;;;15.40;99.90;;;;;;5070091;28;20037;-71
2022/05/24 08:15:35;;;;;;;10.35;6.55;;;14.50;99.90;;;;;;5070133;28;20051;-71
2022/05/24 08:18:01;;;;;;;11.73;5.80;;;14.40;99.90;;;;;;5070874;28;20488;-71
2022/05/24 08:20:29;;;;;;;11.93;6.38;;;15.30;99.90;;;;;;5076391;28;20043;-71
2022/05/24 08:22:55;;;;;;;11.77;6.55;;;14.30;99.90;;;;;;5070594;28;20052;-71
2022/05/24 08:25:21;;;;;;;10.90;6.72;;;14.30;99.90;;;;;;5060365;28;20045;-71
2022/05/24 08:27:47;;;;;;;11.32;6.28;;;14.20;99.90;;;;;;5070910;28;20041;-71
2022/05/24 08:30:15;;;;;;;10.15;6.47;;;14.00;99.90;;;;;;5070470;28;20128;-72
2022/05/24 08:32:41;;;;;;;12.77;6.22;;;14.10;99.90;;;;;;5068294;28;20138;-71
2022/05/24 08:35:09;;;;;;;9.25;6.18;;;14.10;99.90;;;;;;5069402;28;20592;-71
2022/05/24 08:37:35;;;;;;;13.50;6.63;;;14.10;99.90;;;;;;5051534;28;20041;-71
2022/05/24 08:40:01;;;;;;;14.15;6.80;;;14.10;99.90;;;;;;5070465;28;20097;-71
2022/05/24 08:42:51;;;;;;;13.57;7.38;;;15.20;99.90;;;;;;5068669;28;20040;-70
2022/05/24 08:48:32;;;;;;;11.27;7.03;;;14.20;99.90;;;;;;5068241;28;20147;-71
2022/05/24 08:51:27;;;;;;;13.48;6.60;;;14.20;99.90;;;;;;5064875;28;20140;-71
2022/05/24 08:53:56;;;;;;;13.55;8.00;;;14.20;99.90;;;;;;5069177;28;20051;-70
2022/05/24 08:56:30;;;;;;;15.05;8.15;;;14.30;99.90;;;;;;5068029;28;20478;-70
2022/05/24 08:59:03;;;;;;;13.85;7.70;;;14.50;99.90;;;;;;5070832;28;20180;-70
2022/05/24 09:01:32;;;;;;;13.68;7.68;;;14.70;99.90;;;;;;5069135;28;20123;-70
2022/05/24 09:04:08;;;;;;;13.52;7.95;;;14.90;99.90;;;;;;5070560;28;20055;-70
2022/05/24 09:06:53;;;;;;;13.80;7.35;;;15.00;99.90;;;;;;5071268;28;20499;-71
2022/05/24 09:09:49;;;;;;;11.68;7.07;;;15.10;99.90;;;;;;5069619;28;20048;-71
2022/05/24 09:12:26;;;;;;;12.00;7.22;;;15.10;99.90;;;;;;5069207;28;20139;-71
2022/05/24 09:15:09;;;;;;;11.73;8.00;;;15.10;99.90;;;;;;5055984;28;20116;-71
2022/05/24 09:18:09;;;;;;;16.17;9.55;;;15.60;99.90;;;;;;5046987;28;20063;-71
2022/05/24 09:20:38;;;;;;;15.75;10.15;;;15.20;99.90;;;;;;5048907;28;20071;-71
2022/05/24 09:23:23;;;;;;;17.42;10.65;;;15.20;99.90;;;;;;5047242;28;20076;-71
2022/05/24 09:26:00;;;;;;;14.52;8.13;;;15.30;99.90;;;;;;5059817;28;20044;-71
2022/05/24 09:29:13;;;;;;;14.93;9.98;;;14.80;99.90;;;;;;5066541;28;20051;-71
2022/05/24 09:31:49;;;;;;;7.53;5.22;;;15.30;99.90;;;;;;5003849;28;20054;-71
2022/05/24 09:34:17;;;;;;;5.82;3.20;;;15.20;99.90;;;;;;5061538;28;20143;-71
2022/05/24 09:36:57;;;;;;;7.15;2.60;;;15.10;99.90;;;;;;5067167;28;20066;-71
2022/05/24 09:39:55;;;;;;;4.97;2.65;;;15.00;99.90;;;;;;5066050;28;20037;-71
2022/05/24 09:42:31;;;;;;;4.50;2.55;;;14.80;99.90;;;;;;5067140;28;20044;-71
2022/05/24 09:45:24;;;;;;;5.47;2.80;;;15.30;99.90;;;;;;5068227;28;20076;-71
2022/05/24 09:48:01;;;;;;;5.20;2.75;;;14.60;99.90;;;;;;5065216;28;20041;-71
2022/05/24 09:50:36;;;;;;;3.83;2.55;;;14.60;99.90;;;;;;5065054;28;20064;-71
2022/05/24 09:53:02;;;;;;;6.95;2.92;;;14.60;99.90;;;;;;5064010;28;20467;-71
2022/05/24 09:55:46;;;;;;;6.07;2.70;;;14.60;99.90;;;;;;5067196;28;20050;-70
2022/05/24 09:58:17;;;;;;;3.97;2.72;;;14.70;99.90;;;;;;5065231;28;20407;-71
2022/05/24 10:00:59;;;;;;;5.82;3.03;;;15.20;99.90;;;;;;5066013;28;20048;-71
2022/05/24 10:03:30;;;;;;;6.25;3.00;;;15.20;99.90;;;;;;5064401;28;20049;-70
2022/05/24 10:06:15;;;;;;;4.32;2.65;;;15.40;99.90;;;;;;5067133;28;20043;-71
2022/05/24 10:08:51;;;;;;;3.88;2.55;;;15.50;99.90;;;;;;5065440;28;20538;-70
2022/05/24 10:11:23;;;;;;;6.95;3.10;;;15.50;99.90;;;;;;5065063;28;20040;-70
2022/05/24 10:14:04;;;;;;;5.88;2.67;;;16.10;99.90;;;;;;5065605;28;20092;-71
2022/05/24 10:16:51;;;;;;;4.90;2.63;;;16.00;99.90;;;;;;5045257;28;20045;-71
2022/05/24 10:19:41;;;;;;;4.97;2.47;;;16.20;99.90;;;;;;5046058;28;20048;-71
2022/05/24 10:22:34;;;;;;;4.53;2.70;;;16.70;99.90;;;;;;5048494;28;20076;-70
2022/05/24 10:25:39;;;;;;;6.10;2.60;;;16.60;99.90;;;;;;5065210;28;20051;-65
2022/05/24 10:28:23;;;;;;;9.07;2.73;;;16.30;99.90;;;;;;5059788;28;20171;-66
2022/05/24 10:31:10;;;;;;;4.03;2.50;;;16.20;99.90;;;;;;5062712;28;20704;-65
2022/05/24 10:40:05;;;;;;;10.38;3.00;;;15.90;99.90;;;;;;5011977;28;19926;-66
2022/05/24 10:42:55;;;;;;;5.28;2.50;;;15.80;99.90;;;;;;5011925;28;20107;-67
2022/05/24 10:45:49;;;;;;;6.95;3.35;;;15.40;99.90;;;;;;5044586;28;20044;-66
2022/05/24 10:48:16;;;;;;;6.57;3.03;;;15.50;99.90;;;;;;5059485;28;20475;-65
2022/05/24 10:51:15;;;;;;;5.30;3.08;;;14.90;99.90;;;;;;5062872;28;20053;-65
2022/05/24 10:53:54;;;;;;;6.38;2.58;;;14.70;99.90;;;;;;5040043;28;20080;-65
2022/05/24 10:56:45;;;;;;;6.20;2.78;;;14.70;99.90;;;;;;5025326;28;20106;-65
2022/05/24 10:59:22;;;;;;;6.57;2.80;;;15.20;99.90;;;;;;5044376;28;20068;-66
2022/05/24 11:01:56;;;;;;;5.20;2.60;;;16.80;99.90;;;;;;5043120;28;20453;-66
2022/05/24 11:04:34;;;;;;;3.35;2.10;;;19.10;99.90;;;;;;5059027;28;20044;-66
2022/05/24 11:07:11;;;;;;;4.57;2.28;;;22.10;99.90;;;;;;5063907;28;20404;-66
2022/05/24 11:09:43;;;;;;;4.10;2.10;;;25.00;99.90;;;;;;5067944;28;20052;-66
2022/05/24 11:12:26;;;;;;;3.72;2.10;;;24.90;99.90;;;;;;5065457;28;20036;-65
2022/05/24 11:15:09;;;;;;;3.25;2.28;;;23.40;99.90;;;;;;5076133;28;20040;-65
2022/05/24 11:17:35;;;;;;;4.55;2.60;;;21.90;99.90;;;;;;5057639;28;20052;-65
2022/05/24 11:20:04;;;;;;;5.22;2.10;;;20.60;99.90;;;;;;5049612;28;20092;-65
2022/05/24 11:22:46;;;;;;;5.38;2.40;;;19.50;99.90;;;;;;5066427;28;20037;-64
2022/05/24 11:25:28;;;;;;;3.97;2.10;;;18.50;99.90;;;;;;5047364;28;20128;-66
2022/05/24 11:27:59;;;;;;;5.30;2.00;;;18.00;99.90;;;;;;5047138;28;20041;-66
2022/05/24 11:30:28;;;;;;;3.97;2.20;;;17.80;99.90;;;;;;5046110;28;20044;-65
2022/05/24 11:33:16;;;;;;;3.65;1.90;;;17.60;99.90;;;;;;5046110;28;20048;-65
2022/05/24 11:35:45;;;;;;;5.57;1.90;;;17.20;99.90;;;;;;5055198;28;20047;-66
2022/05/24 11:38:16;;;;;;;5.15;2.40;;;16.90;99.90;;;;;;5047842;28;20045;-65
2022/05/24 11:40:54;;;;;;;3.17;1.80;;;16.70;99.90;;;;;;5068087;28;20040;-66
2022/05/24 11:43:35;;;;;;;2.97;1.70;;;17.20;99.90;;;;;;5065828;28;20500;-66
2022/05/24 11:46:07;;;;;;;2.88;1.60;;;18.10;99.90;;;;;;5066769;28;20123;-66
2022/05/24 11:48:52;;;;;;;2.45;1.60;;;20.40;99.90;;;;;;5065293;28;20075;-66
2022/05/24 11:51:45;;;;;;;3.05;1.50;;;22.70;99.90;;;;;;5066303;28;20045;-66
2022/05/24 11:54:23;;;;;;;7.25;1.60;;;23.30;99.90;;;;;;5061164;28;20405;-66
2022/05/24 11:57:01;;;;;;;2.60;1.50;;;23.10;99.90;;;;;;5065329;28;20084;-65
2022/05/24 11:59:47;;;;;;;5.60;1.80;;;22.70;99.90;;;;;;5066145;28;20092;-65
2022/05/24 12:02:19;;;;;;;4.15;1.50;;;22.30;99.90;;;;;;5064784;28;20131;-67
2022/05/24 12:07:56;;;;;;;5.03;1.58;;;21.00;99.90;;;;;;5046959;28;20053;-66
2022/05/24 12:10:21;;;;;;;3.78;1.40;;;20.70;99.90;;;;;;5063001;28;20052;-65
2022/05/24 12:12:50;;;;;;;5.88;1.52;;;21.00;99.90;;;;;;5062731;28;20486;-66
2022/05/24 12:15:30;;;;;;;4.25;1.50;;;20.90;99.90;;;;;;5066548;28;20114;-66
2022/05/24 12:17:59;;;;;;;2.72;1.17;;;20.40;99.90;;;;;;5061002;28;20042;-66
2022/05/24 12:20:33;;;;;;;8.32;1.73;;;20.70;99.90;;;;;;5064921;28;20063;-65
2022/05/24 12:23:13;;;;;;;4.30;1.40;;;20.60;99.90;;;;;;5067060;28;20060;-66
2022/05/24 12:25:58;;;;;;;3.78;1.25;;;20.00;99.90;;;;;;5066229;28;20055;-65
2022/05/24 12:28:35;;;;;;;3.67;1.65;;;19.80;99.90;;;;;;5066285;28;20049;-66
2022/05/24 12:31:14;;;;;;;4.15;1.50;;;20.30;99.90;;;;;;5068243;28;20119;-65
2022/05/24 12:33:43;;;;;;;5.15;1.70;;;19.20;99.90;;;;;;5064425;28;20094;-65
2022/05/24 12:36:19;;;;;;;4.30;1.52;;;19.30;99.90;;;;;;5066233;28;20178;-65
2022/05/24 12:38:49;;;;;;;4.05;1.50;;;19.10;99.90;;;;;;5066994;28;20041;-65
2022/05/24 12:41:42;;;;;;;3.75;1.70;;;18.70;99.90;;;;;;5068598;28;20043;-65
2022/05/24 12:44:21;;;;;;;4.53;1.92;;;18.30;99.90;;;;;;5067863;28;20052;-66
2022/05/24 12:46:53;;;;;;;3.47;1.52;;;17.80;99.90;;;;;;5068293;28;20036;-64
2022/05/24 12:49:22;;;;;;;4.53;1.60;;;17.60;99.90;;;;;;5067774;28;20053;-65
2022/05/24 12:51:52;;;;;;;5.88;1.50;;;17.90;99.90;;;;;;5066697;28;20494;-67
2022/05/24 12:54:31;;;;;;;8.40;1.65;;;18.30;99.90;;;;;;5068372;28;20527;-66
2022/05/24 12:57:14;;;;;;;5.80;1.58;;;18.70;99.90;;;;;;5080122;28;20040;-68
2022/05/24 12:59:42;;;;;;;7.85;1.83;;;18.80;99.90;;;;;;5061278;28;21620;-68
2022/05/24 13:02:34;;;;;;;5.43;1.58;;;19.00;99.90;;;;;;5068048;28;20412;-68
2022/05/24 13:05:07;;;;;;;5.72;1.70;;;19.00;99.90;;;;;;5069208;28;20452;-69
2022/05/24 13:07:56;;;;;;;4.88;1.95;;;18.90;99.90;;;;;;5068165;28;20071;-69
2022/05/24 13:10:34;;;;;;;7.65;1.70;;;18.90;99.90;;;;;;5059181;28;20219;-69
2022/05/24 13:13:06;;;;;;;4.05;1.60;;;18.90;99.90;;;;;;5070007;28;20037;-69
2022/05/24 13:15:49;;;;;;;4.85;1.50;;;18.90;99.90;;;;;;5065005;28;20954;-69
2022/05/24 13:18:26;;;;;;;5.88;2.00;;;18.90;99.90;;;;;;5064939;28;20044;-69
2022/05/24 13:21:00;;;;;;;3.42;1.42;;;18.80;99.90;;;;;;5069703;28;20052;-68
2022/05/24 13:23:38;;;;;;;4.25;1.20;;;18.70;99.90;;;;;;5068747;28;20049;-68
2022/05/24 13:26:04;;;;;;;4.10;1.38;;;18.70;99.90;;;;;;5069821;28;20089;-68
2022/05/24 13:28:32;;;;;;;3.72;1.30;;;18.50;99.90;;;;;;5069758;28;20143;-69
2022/05/24 13:33:49;;;;;;;4.70;1.38;;;18.70;99.90;;;;;;5068797;28;20045;-69
2022/05/24 13:36:44;;;;;;;4.43;1.38;;;19.20;99.90;;;;;;5068179;28;20087;-68
2022/05/24 13:39:18;;;;;;;3.70;1.33;;;18.60;99.90;;;;;;5070388;28;20372;-69
2022/05/24 13:42:05;;;;;;;3.10;1.35;;;18.30;99.90;;;;;;5072076;28;20048;-69
2022/05/24 13:44:34;;;;;;;3.05;1.48;;;18.10;99.90;;;;;;5066641;28;20060;-68
2022/05/24 13:47:04;;;;;;;4.25;1.58;;;18.00;99.90;;;;;;5065230;28;20145;-68